createdAt,value
2017-11-28T00:02:13.278Z,3.90
2017-11-28T00:04:43.376Z,3.63
2017-11-28T00:07:13.515Z,5.63
2017-11-28T00:09:43.400Z,4.30
2017-11-28T00:12:13.629Z,5.77
2017-11-28T00:14:43.495Z,4.93
2017-11-28T00:17:13.665Z,5.40
2017-11-28T00:19:43.602Z,3.70
2017-11-28T00:22:13.762Z,3.73
2017-11-28T00:24:43.820Z,4.83
2017-11-28T00:27:14.722Z,3.20
2017-11-28T00:29:44.283Z,2.63
2017-11-28T00:32:13.903Z,3.20
2017-11-28T00:34:44.030Z,3.60
2017-11-28T00:37:14.199Z,4.80
2017-11-28T00:39:44.131Z,3.53
2017-11-28T00:42:14.305Z,3.90
2017-11-28T00:44:44.293Z,2.93
2017-11-28T00:47:14.339Z,3.67
2017-11-28T00:49:44.332Z,5.43
2017-11-28T00:52:14.478Z,4.03
2017-11-28T00:54:44.471Z,3.60
2017-11-28T00:57:14.456Z,4.63
2017-11-28T00:59:44.531Z,3.07
2017-11-28T01:02:14.516Z,4.77
2017-11-28T01:04:44.574Z,4.47
2017-11-28T01:07:14.627Z,4.40
2017-11-28T01:09:44.570Z,4.30
2017-11-28T01:12:14.708Z,5.43
2017-11-28T01:14:45.223Z,5.27
2017-11-28T01:17:15.150Z,4.70
2017-11-28T01:19:44.846Z,5.30
2017-11-28T01:22:15.021Z,2.50
2017-11-28T01:24:45.143Z,3.33
2017-11-28T01:27:15.120Z,3.60
2017-11-28T01:29:45.172Z,5.10
2017-11-28T01:32:15.255Z,4.67
2017-11-28T01:34:45.354Z,4.40
2017-11-28T01:37:15.385Z,5.43
2017-11-28T01:39:45.688Z,5.70
2017-11-28T01:42:15.459Z,2.60
2017-11-28T01:44:45.566Z,3.37
2017-11-28T01:47:15.638Z,3.77
2017-11-28T01:49:45.764Z,3.87
2017-11-28T01:52:15.738Z,5.03
2017-11-28T01:54:45.754Z,4.07
2017-11-28T01:57:15.772Z,4.10
2017-11-28T01:59:45.892Z,3.33
2017-11-28T02:02:15.968Z,3.20
2017-11-28T02:04:46.404Z,3.87
2017-11-28T02:07:16.014Z,3.37
2017-11-28T02:09:46.135Z,4.13
2017-11-28T02:12:16.220Z,3.13
2017-11-28T02:14:46.239Z,3.00
2017-11-28T02:17:16.340Z,4.33
2017-11-28T02:19:46.273Z,3.97
2017-11-28T02:22:16.516Z,4.13
2017-11-28T02:24:46.382Z,3.57
2017-11-28T02:27:16.437Z,3.43
2017-11-28T02:29:46.444Z,4.50
2017-11-28T02:32:16.546Z,4.17
2017-11-28T02:34:46.532Z,3.03
2017-11-28T02:37:16.755Z,5.40
2017-11-28T02:39:46.806Z,5.50
2017-11-28T02:42:16.574Z,3.50
2017-11-28T02:44:46.728Z,4.70
2017-11-28T02:47:16.853Z,4.10
2017-11-28T02:49:48.537Z,3.53
2017-11-28T02:52:18.287Z,4.67
2017-11-28T02:54:49.837Z,4.57
2017-11-28T02:57:19.420Z,4.20
2017-11-28T02:59:49.574Z,3.10
2017-11-28T03:02:19.504Z,4.37
2017-11-28T03:04:49.635Z,3.43
2017-11-28T03:07:20.666Z,2.60
2017-11-28T03:09:50.331Z,3.17
2017-11-28T03:12:20.800Z,2.70
2017-11-28T03:15:05.342Z,2.80
2017-11-28T03:17:34.899Z,4.87
2017-11-28T03:20:07.746Z,4.40
2017-11-28T03:22:37.830Z,3.90
2017-11-28T03:25:12.014Z,2.60
2017-11-28T03:27:42.208Z,3.97
2017-11-28T03:30:22.631Z,3.23
2017-11-28T03:32:52.599Z,5.03
2017-11-28T03:35:22.656Z,5.57
2017-11-28T03:37:53.564Z,5.00
2017-11-28T03:40:23.322Z,4.17
2017-11-28T03:42:53.322Z,3.10
2017-11-28T03:45:39.242Z,5.33
2017-11-28T03:48:08.813Z,2.87
2017-11-28T03:50:38.553Z,4.20
2017-11-28T03:53:08.719Z,3.30
2017-11-28T03:55:38.743Z,3.17
2017-11-28T03:58:08.764Z,2.73
2017-11-28T04:00:38.840Z,6.87
2017-11-28T04:03:08.836Z,4.40
2017-11-28T04:05:39.035Z,2.90
2017-11-28T04:08:09.092Z,5.17
2017-11-28T04:10:39.062Z,4.07
2017-11-28T04:13:09.120Z,4.30
2017-11-28T04:15:39.234Z,2.80
2017-11-28T04:18:09.254Z,3.50
2017-11-28T04:20:39.335Z,3.00
2017-11-28T04:23:09.394Z,3.27
2017-11-28T04:25:39.406Z,3.27
2017-11-28T04:28:09.525Z,2.60
2017-11-28T04:30:39.608Z,3.23
2017-11-28T04:33:09.587Z,3.77
2017-11-28T04:35:39.714Z,3.00
2017-11-28T04:38:09.758Z,2.63
2017-11-28T04:40:39.815Z,3.70
2017-11-28T04:43:09.883Z,2.60
2017-11-28T04:45:39.971Z,2.27
2017-11-28T04:48:10.111Z,2.20
2017-11-28T04:50:39.980Z,2.03
2017-11-28T04:53:10.106Z,2.37
2017-11-28T04:55:40.244Z,2.20
2017-11-28T04:58:10.432Z,3.20
2017-11-28T05:00:40.426Z,2.40
2017-11-28T05:03:10.395Z,2.73
2017-11-28T05:05:40.434Z,2.57
2017-11-28T05:08:10.405Z,2.17
2017-11-28T05:10:40.551Z,3.30
2017-11-28T05:13:10.578Z,3.23
2017-11-28T05:15:40.612Z,3.30
2017-11-28T05:18:10.634Z,3.90
2017-11-28T05:20:40.619Z,3.73
2017-11-28T05:23:10.740Z,2.50
2017-11-28T05:25:41.105Z,2.37
2017-11-28T05:28:10.782Z,3.27
2017-11-28T05:30:40.815Z,2.27
2017-11-28T05:33:10.832Z,3.20
2017-11-28T05:35:41.100Z,1.83
2017-11-28T05:38:11.287Z,2.47
2017-11-28T05:40:40.990Z,2.83
2017-11-28T05:43:11.018Z,3.33
2017-11-28T05:45:41.142Z,4.57
2017-11-28T05:48:11.283Z,3.77
2017-11-28T05:50:42.245Z,4.07
2017-11-28T05:53:12.450Z,2.53
2017-11-28T05:55:42.022Z,6.83
2017-11-28T05:58:11.648Z,2.33
2017-11-28T06:00:41.526Z,2.97
2017-11-28T06:03:11.513Z,2.47
2017-11-28T06:05:41.699Z,3.27
2017-11-28T06:08:13.537Z,4.73
2017-11-28T06:10:43.098Z,3.53
2017-11-28T06:13:12.677Z,2.30
2017-11-28T06:15:42.259Z,4.63
2017-11-28T06:18:11.855Z,2.33
2017-11-28T06:20:41.912Z,2.20
2017-11-28T06:23:11.988Z,2.40
2017-11-28T06:25:41.807Z,2.23
2017-11-28T06:28:11.958Z,2.53
2017-11-28T06:30:41.997Z,4.00
2017-11-28T06:33:12.021Z,1.90
2017-11-28T06:35:42.516Z,2.63
2017-11-28T06:38:12.637Z,2.40
2017-11-28T06:40:42.652Z,2.97
2017-11-28T06:43:12.630Z,7.23
2017-11-28T06:45:42.648Z,10.20
2017-11-28T06:48:12.825Z,3.60
2017-11-28T06:50:42.849Z,6.10
2017-11-28T06:53:13.006Z,5.13
2017-11-28T06:55:42.928Z,7.07
2017-11-28T06:58:13.055Z,4.20
2017-11-28T07:00:43.059Z,4.00
2017-11-28T07:03:13.195Z,2.63
2017-11-28T07:05:43.229Z,3.40
2017-11-28T07:08:13.370Z,3.60
2017-11-28T07:10:43.471Z,3.43
2017-11-28T07:13:13.393Z,2.80
2017-11-28T07:15:43.547Z,2.97
2017-11-28T07:18:14.006Z,3.93
2017-11-28T07:20:44.032Z,3.77
2017-11-28T07:23:14.068Z,2.90
2017-11-28T07:25:44.057Z,3.10
2017-11-28T07:28:14.166Z,4.20
2017-11-28T07:30:44.213Z,3.00
2017-11-28T07:33:14.197Z,6.93
2017-11-28T07:35:44.439Z,3.30
2017-11-28T07:38:14.549Z,4.20
2017-11-28T07:40:44.600Z,4.53
2017-11-28T07:43:14.533Z,3.40
2017-11-28T07:45:44.852Z,3.10
2017-11-28T07:48:14.602Z,3.30
2017-11-28T07:50:44.624Z,2.33
2017-11-28T07:53:14.770Z,3.87
2017-11-28T07:55:44.765Z,5.20
2017-11-28T07:58:14.777Z,11.40
2017-11-28T08:00:44.904Z,2.53
2017-11-28T08:03:14.911Z,2.07
2017-11-28T08:05:44.877Z,3.63
2017-11-28T08:08:14.959Z,2.10
2017-11-28T08:10:45.332Z,3.47
2017-11-28T08:13:15.540Z,5.97
2017-11-28T08:15:45.649Z,3.13
2017-11-28T08:18:15.732Z,3.33
2017-11-28T08:20:45.904Z,3.83
2017-11-28T08:23:16.351Z,4.57
2017-11-28T08:25:46.045Z,2.60
2017-11-28T08:28:16.359Z,5.53
2017-11-28T08:30:46.168Z,4.50
2017-11-28T08:33:15.919Z,4.10
2017-11-28T08:35:46.107Z,3.90
2017-11-28T08:38:16.264Z,2.53
2017-11-28T08:40:46.149Z,3.07
2017-11-28T08:43:16.266Z,3.50
2017-11-28T08:45:46.189Z,4.87
2017-11-28T08:48:16.258Z,3.67
2017-11-28T08:50:46.429Z,4.73
2017-11-28T08:53:16.346Z,10.00
2017-11-28T08:55:46.459Z,3.97
2017-11-28T08:58:16.562Z,4.20
2017-11-28T09:00:46.586Z,2.67
2017-11-28T09:03:16.560Z,3.90
2017-11-28T09:05:46.647Z,3.30
2017-11-28T09:08:16.729Z,5.27
2017-11-28T09:10:46.683Z,2.23
2017-11-28T09:13:16.730Z,2.73
2017-11-28T09:15:46.816Z,4.50
2017-11-28T09:18:16.930Z,7.80
2017-11-28T09:20:47.957Z,4.43
2017-11-28T09:23:17.511Z,6.23
2017-11-28T09:25:47.152Z,4.13
2017-11-28T09:28:17.151Z,4.03
2017-11-28T09:30:47.278Z,3.37
2017-11-28T09:33:17.793Z,3.70
2017-11-28T09:35:47.321Z,5.17
2017-11-28T09:38:17.431Z,2.60
2017-11-28T09:40:47.484Z,3.30
2017-11-28T09:43:17.501Z,3.67
2017-11-28T09:45:47.603Z,2.93
2017-11-28T09:48:17.814Z,2.60
2017-11-28T09:50:47.717Z,3.03
2017-11-28T09:53:17.790Z,3.87
2017-11-28T09:55:47.880Z,3.80
2017-11-28T09:58:17.870Z,4.47
2017-11-28T10:00:48.037Z,4.00
2017-11-28T10:03:18.101Z,3.27
2017-11-28T10:05:48.184Z,3.13
2017-11-28T10:08:18.246Z,5.17
2017-11-28T10:10:48.312Z,4.97
2017-11-28T10:13:18.598Z,5.27
2017-11-28T10:15:48.655Z,4.00
2017-11-28T10:18:18.528Z,3.57
2017-11-28T10:20:48.419Z,3.37
2017-11-28T10:23:18.621Z,2.57
2017-11-28T10:25:48.733Z,3.27
2017-11-28T10:28:18.732Z,7.03
2017-11-28T10:30:48.796Z,4.70
2017-11-28T10:33:18.908Z,3.20
2017-11-28T10:35:48.930Z,6.97
2017-11-28T10:38:19.896Z,3.97
2017-11-28T10:40:50.377Z,3.40
2017-11-28T10:43:19.988Z,2.30
2017-11-28T10:45:49.706Z,4.40
2017-11-28T10:48:19.344Z,4.60
2017-11-28T10:50:49.551Z,2.23
2017-11-28T10:53:19.459Z,2.77
2017-11-28T10:55:49.315Z,2.83
2017-11-28T10:58:19.446Z,3.87
2017-11-28T11:00:49.448Z,3.50
2017-11-28T11:03:19.593Z,2.30
2017-11-28T11:05:49.607Z,2.37
2017-11-28T11:08:19.587Z,3.77
2017-11-28T11:10:49.648Z,5.80
2017-11-28T11:13:19.763Z,4.63
2017-11-28T11:15:49.901Z,3.30
2017-11-28T11:18:19.927Z,4.37
2017-11-28T11:20:49.918Z,2.83
2017-11-28T11:23:19.935Z,6.03
2017-11-28T11:25:50.077Z,7.50
2017-11-28T11:28:20.074Z,5.07
2017-11-28T11:30:50.088Z,5.57
2017-11-28T11:33:20.173Z,4.03
2017-11-28T11:35:50.219Z,4.43
2017-11-28T11:38:20.289Z,4.43
2017-11-28T11:40:50.297Z,3.80
2017-11-28T11:43:20.477Z,3.87
2017-11-28T11:45:50.553Z,5.43
2017-11-28T11:48:20.721Z,3.80
2017-11-28T11:50:50.664Z,4.20
2017-11-28T11:53:20.686Z,5.33
2017-11-28T11:55:50.775Z,4.07
2017-11-28T11:58:20.720Z,7.33
2017-11-28T12:00:50.772Z,4.47
2017-11-28T12:03:20.825Z,6.57
2017-11-28T12:05:50.940Z,5.73
2017-11-28T12:08:21.058Z,7.37
2017-11-28T12:10:51.107Z,7.50
2017-11-28T12:13:21.100Z,7.00
2017-11-28T12:15:51.236Z,7.10
2017-11-28T12:18:21.344Z,5.43
2017-11-28T12:20:51.436Z,5.50
2017-11-28T12:23:21.485Z,3.80
2017-11-28T12:25:51.510Z,7.37
2017-11-28T12:28:21.621Z,6.93
2017-11-28T12:30:51.643Z,8.97
2017-11-28T12:33:21.805Z,10.17
2017-11-28T12:35:51.762Z,9.10
2017-11-28T12:38:21.875Z,7.40
2017-11-28T12:40:51.929Z,6.00
2017-11-28T12:43:22.018Z,7.30
2017-11-28T12:45:51.919Z,17.47
2017-11-28T12:48:22.091Z,11.00
2017-11-28T12:50:52.056Z,11.07
2017-11-28T12:53:22.061Z,8.03
2017-11-28T12:55:52.281Z,17.23
2017-11-28T12:58:22.129Z,10.07
2017-11-28T13:00:52.216Z,9.97
2017-11-28T13:03:22.233Z,13.07
2017-11-28T13:05:52.420Z,8.77
2017-11-28T13:08:22.408Z,5.57
2017-11-28T13:10:52.415Z,5.60
2017-11-28T13:13:22.433Z,7.60
2017-11-28T13:15:52.590Z,8.83
2017-11-28T13:18:22.555Z,13.00
2017-11-28T13:20:52.556Z,6.57
2017-11-28T13:23:22.686Z,4.93
2017-11-28T13:25:52.827Z,6.70
2017-11-28T13:28:22.779Z,4.87
2017-11-28T13:30:52.754Z,4.77
2017-11-28T13:33:22.784Z,4.03
2017-11-28T13:35:52.961Z,4.40
2017-11-28T13:38:22.952Z,5.73
2017-11-28T13:40:52.956Z,6.73
2017-11-28T13:43:22.986Z,3.60
2017-11-28T13:45:53.241Z,8.20
2017-11-28T13:48:23.195Z,7.47
2017-11-28T13:50:53.587Z,5.90
2017-11-28T13:53:23.788Z,5.20
2017-11-28T13:55:53.676Z,3.67
2017-11-28T13:58:23.715Z,3.53
2017-11-28T14:00:53.810Z,5.53
2017-11-28T14:03:23.793Z,3.40
2017-11-28T14:05:54.004Z,4.13
2017-11-28T14:08:23.925Z,3.73
2017-11-28T14:10:54.082Z,6.40
2017-11-28T14:13:24.104Z,3.80
2017-11-28T14:15:54.047Z,4.20
2017-11-28T14:18:24.367Z,8.37
2017-11-28T14:21:13.359Z,3.47
2017-11-28T14:23:48.774Z,3.30
2017-11-28T14:26:35.802Z,6.37
2017-11-28T14:29:08.675Z,3.57
2017-11-28T14:31:44.095Z,4.67
2017-11-28T14:34:14.183Z,7.40
2017-11-28T14:36:44.222Z,7.97
2017-11-28T14:39:14.177Z,5.10
2017-11-28T14:41:45.924Z,7.03
2017-11-28T14:44:33.855Z,7.43
2017-11-28T14:47:03.883Z,5.87
2017-11-28T14:49:33.927Z,8.27
2017-11-28T14:52:05.261Z,4.50
2017-11-28T14:54:41.291Z,5.13
2017-11-28T14:57:13.547Z,3.30
2017-11-28T14:59:48.976Z,5.23
2017-11-28T15:02:24.692Z,4.67
2017-11-28T15:04:59.974Z,4.33
2017-11-28T15:07:35.374Z,4.80
2017-11-28T15:10:13.684Z,7.67
2017-11-28T15:12:48.911Z,3.07
2017-11-28T15:15:24.365Z,3.47
2017-11-28T15:18:00.156Z,3.57
2017-11-28T15:20:45.425Z,4.93
2017-11-28T15:23:21.064Z,3.60
2017-11-28T15:25:57.717Z,3.57
2017-11-28T15:28:32.804Z,2.70
2017-11-28T15:31:04.392Z,5.60
2017-11-28T15:33:34.353Z,4.20
2017-11-28T15:36:04.445Z,5.60
2017-11-28T15:38:34.459Z,5.82
2017-11-28T15:41:04.479Z,3.10
2017-11-28T15:43:34.021Z,4.67
2017-11-28T15:46:03.603Z,10.37
2017-11-28T15:48:33.201Z,2.73
2017-11-28T15:51:02.763Z,3.20
2017-11-28T15:53:32.465Z,4.77
2017-11-28T15:56:02.725Z,6.80
2017-11-28T15:58:32.608Z,3.60
2017-11-28T16:01:02.970Z,3.43
2017-11-28T16:03:32.663Z,2.83
2017-11-28T16:06:02.937Z,3.47
2017-11-28T16:08:32.926Z,7.80
2017-11-28T16:11:02.881Z,3.60
2017-11-28T16:13:32.928Z,3.77
2017-11-28T16:16:02.968Z,4.80
2017-11-28T16:18:33.004Z,7.50
2017-11-28T16:21:03.069Z,5.43
2017-11-28T16:23:32.988Z,5.47
2017-11-28T16:26:03.273Z,4.50
2017-11-28T16:28:33.207Z,3.50
2017-11-28T16:31:03.242Z,6.27
2017-11-28T16:33:33.168Z,8.47
2017-11-28T16:36:03.167Z,5.40
2017-11-28T16:38:33.326Z,4.90
2017-11-28T16:41:03.326Z,4.83
2017-11-28T16:43:33.228Z,4.83
2017-11-28T16:46:03.519Z,6.20
2017-11-28T16:48:33.352Z,4.60
2017-11-28T16:51:03.411Z,4.30
2017-11-28T16:53:33.522Z,7.40
2017-11-28T16:56:03.653Z,8.63
2017-11-28T16:58:33.556Z,4.50
2017-11-28T17:01:03.645Z,6.03
2017-11-28T17:03:33.642Z,6.17
2017-11-28T17:06:03.666Z,7.77
2017-11-28T17:08:33.723Z,5.67
2017-11-28T17:11:03.877Z,5.37
2017-11-28T17:13:33.773Z,7.83
2017-11-28T17:16:03.918Z,9.20
2017-11-28T17:18:33.919Z,9.17
2017-11-28T17:21:09.466Z,4.97
2017-11-28T17:23:39.125Z,5.43
2017-11-28T17:26:09.220Z,9.30
2017-11-28T17:28:39.223Z,5.50
2017-11-28T17:31:09.355Z,10.33
2017-11-28T17:33:39.234Z,7.77
2017-11-28T17:36:09.369Z,5.30
2017-11-28T17:38:39.382Z,6.17
2017-11-28T17:41:09.402Z,6.93
2017-11-28T17:43:39.418Z,6.90
2017-11-28T17:46:09.420Z,7.07
2017-11-28T17:48:39.446Z,7.50
2017-11-28T17:51:09.773Z,6.70
2017-11-28T17:53:39.682Z,6.63
2017-11-28T17:56:09.986Z,5.27
2017-11-28T17:58:41.154Z,7.93
2017-11-28T18:01:11.054Z,9.27
2017-11-28T18:03:41.372Z,10.27
2017-11-28T18:06:11.067Z,13.17
2017-11-28T18:08:40.692Z,9.17
2017-11-28T18:11:10.697Z,15.07
2017-11-28T18:13:40.260Z,9.23
2017-11-28T18:16:10.002Z,7.97
2017-11-28T18:18:40.070Z,7.70
2017-11-28T18:21:10.099Z,5.50
2017-11-28T18:23:40.236Z,6.97
2017-11-28T18:26:10.648Z,6.40
2017-11-28T18:28:40.320Z,7.00
2017-11-28T18:31:10.390Z,7.87
2017-11-28T18:33:40.467Z,7.80
2017-11-28T18:36:10.494Z,6.60
2017-11-28T18:38:40.624Z,6.33
2017-11-28T18:41:10.763Z,5.10
2017-11-28T18:43:40.588Z,12.67
2017-11-28T18:46:10.985Z,7.37
2017-11-28T18:48:40.677Z,5.20
2017-11-28T18:51:10.794Z,4.93
2017-11-28T18:53:40.803Z,4.93
2017-11-28T18:56:10.822Z,6.97
2017-11-28T18:58:41.024Z,8.83
2017-11-28T19:01:11.130Z,7.53
2017-11-28T19:03:40.984Z,8.30
2017-11-28T19:06:11.349Z,10.73
2017-11-28T19:08:41.128Z,8.47
2017-11-28T19:11:11.107Z,6.07
2017-11-28T19:13:41.344Z,7.77
2017-11-28T19:16:11.248Z,8.20
2017-11-28T19:18:41.199Z,6.87
2017-11-28T19:21:11.291Z,10.33
2017-11-28T19:23:42.787Z,11.30
2017-11-28T19:26:12.347Z,8.00
2017-11-28T19:28:42.350Z,8.63
2017-11-28T19:31:12.315Z,7.33
2017-11-28T19:33:42.325Z,7.17
2017-11-28T19:36:12.333Z,10.77
2017-11-28T19:38:42.457Z,8.87
2017-11-28T19:41:12.544Z,7.23
2017-11-28T19:43:42.625Z,7.97
2017-11-28T19:46:12.592Z,9.43
2017-11-28T19:48:42.685Z,9.47
2017-11-28T19:51:12.729Z,9.10
2017-11-28T19:53:42.774Z,8.67
2017-11-28T19:56:13.010Z,10.93
2017-11-28T19:58:43.606Z,9.43
2017-11-28T20:01:13.150Z,11.03
2017-11-28T20:03:43.278Z,8.70
2017-11-28T20:06:13.177Z,9.33
2017-11-28T20:08:43.204Z,7.03
2017-11-28T20:11:13.659Z,8.30
2017-11-28T20:13:43.326Z,9.87
2017-11-28T20:16:13.373Z,7.47
2017-11-28T20:18:43.433Z,9.70
2017-11-28T20:21:13.571Z,14.23
2017-11-28T20:23:43.656Z,8.13
2017-11-28T20:26:13.534Z,8.23
2017-11-28T20:28:43.636Z,9.53
2017-11-28T20:31:13.655Z,10.70
2017-11-28T20:33:43.694Z,11.67
2017-11-28T20:36:13.583Z,7.10
2017-11-28T20:38:43.625Z,8.97
2017-11-28T20:41:13.701Z,10.93
2017-11-28T20:43:43.752Z,8.43
2017-11-28T20:46:13.765Z,9.30
2017-11-28T20:48:43.966Z,36.40
2017-11-28T20:51:13.906Z,9.70
2017-11-28T20:53:44.299Z,7.73
2017-11-28T20:56:14.229Z,9.77
2017-11-28T20:58:43.981Z,8.93
2017-11-28T21:01:13.989Z,13.77
2017-11-28T21:03:43.980Z,11.17
2017-11-28T21:06:14.101Z,11.43
2017-11-28T21:08:44.095Z,10.13
2017-11-28T21:11:14.228Z,13.37
2017-11-28T21:13:44.280Z,8.77
2017-11-28T21:16:14.222Z,11.17
2017-11-28T21:18:44.175Z,9.37
2017-11-28T21:21:14.296Z,9.43
2017-11-28T21:23:44.251Z,12.43
2017-11-28T21:26:14.363Z,10.40
2017-11-28T21:28:44.556Z,11.17
2017-11-28T21:31:14.610Z,15.10
2017-11-28T21:33:44.516Z,9.87
2017-11-28T21:36:14.572Z,12.27
2017-11-28T21:38:44.577Z,11.50
2017-11-28T21:41:17.191Z,16.47
2017-11-28T21:43:47.210Z,16.13
2017-11-28T21:46:17.051Z,11.93
2017-11-28T21:48:47.171Z,9.83
2017-11-28T21:51:17.136Z,10.87
2017-11-28T21:53:47.282Z,11.50
2017-11-28T21:56:17.458Z,14.20
2017-11-28T21:58:47.264Z,15.60
2017-11-28T22:01:17.377Z,14.53
2017-11-28T22:03:47.276Z,17.77
2017-11-28T22:06:17.407Z,11.00
2017-11-28T22:08:47.391Z,11.97
2017-11-28T22:11:17.643Z,8.90
2017-11-28T22:13:47.576Z,14.77
2017-11-28T22:16:17.528Z,9.83
2017-11-28T22:18:47.548Z,9.20
2017-11-28T22:21:17.566Z,12.27
2017-11-28T22:23:47.643Z,9.20
2017-11-28T22:26:17.671Z,11.47
2017-11-28T22:28:47.881Z,10.03
2017-11-28T22:31:17.776Z,11.67
2017-11-28T22:33:47.879Z,12.30
2017-11-28T22:36:17.957Z,10.87
2017-11-28T22:38:47.862Z,13.10
2017-11-28T22:41:18.085Z,13.00
2017-11-28T22:43:48.033Z,15.57
2017-11-28T22:46:18.050Z,17.63
2017-11-28T22:48:48.050Z,13.87
2017-11-28T22:51:17.992Z,17.07
2017-11-28T22:53:48.067Z,11.73
2017-11-28T22:56:18.191Z,10.30
2017-11-28T22:58:48.164Z,12.47
2017-11-28T23:01:18.301Z,9.00
2017-11-28T23:03:48.192Z,8.50
2017-11-28T23:06:18.309Z,8.20
2017-11-28T23:08:48.420Z,8.23
2017-11-28T23:11:18.453Z,10.17
2017-11-28T23:13:54.397Z,7.40
2017-11-28T23:16:23.950Z,7.83
2017-11-28T23:18:53.483Z,4.97
2017-11-28T23:21:23.659Z,7.47
2017-11-28T23:23:53.577Z,5.30
2017-11-28T23:26:23.157Z,6.70
2017-11-28T23:28:52.719Z,9.73
2017-11-28T23:31:22.290Z,6.53
2017-11-28T23:33:51.816Z,6.30
2017-11-28T23:36:21.704Z,7.03
2017-11-28T23:38:51.586Z,7.73
2017-11-28T23:41:21.636Z,6.23
2017-11-28T23:43:51.676Z,4.93
2017-11-28T23:46:21.817Z,5.63
2017-11-28T23:48:51.850Z,5.93
2017-11-28T23:51:21.919Z,5.93
2017-11-28T23:53:51.931Z,6.63
2017-11-28T23:56:21.953Z,6.03
2017-11-28T23:58:52.004Z,6.40
